Time;durP1;ratioP1;P1;durP2;ratioP2;P2;SDS_P1;SDS_P2;PMS_P1;PMS_P2;Temp;Humidity;BMP_temperature;BMP_pressure;BME280_temperature;BME280_humidity;BME280_pressure;Samples;Min_cycle;Max_cycle;Signal;HPM_P1;HPM_P2
2023/12/05 00:00:07;;;;;;;21.77;10.30;;;;;;;-1.29;100.00;95373.22;5000931;28;20595;-69
2023/12/05 00:02:35;;;;;;;22.80;10.03;;;;;;;-1.48;100.00;95365.34;5001027;28;20213;-68
2023/12/05 00:05:02;;;;;;;23.97;9.27;;;;;;;-1.57;100.00;95368.66;5000790;28;20214;-69
2023/12/05 00:07:28;;;;;;;19.67;9.90;;;;;;;-1.38;100.00;95359.28;5000687;28;20214;-69
2023/12/05 00:09:55;;;;;;;25.53;10.27;;;;;;;-1.25;100.00;95366.84;5005105;28;20321;-68
2023/12/05 00:12:21;;;;;;;21.33;10.47;;;;;;;-1.30;100.00;95356.06;5001327;28;20218;-69
2023/12/05 00:14:48;;;;;;;27.73;10.97;;;;;;;-1.47;100.00;95365.19;5002589;28;20220;-69
2023/12/05 00:17:14;;;;;;;22.27;10.00;;;;;;;-1.38;100.00;95367.03;5016888;28;20228;-69
2023/12/05 00:19:42;;;;;;;22.30;8.80;;;;;;;-1.13;100.00;95369.22;5005564;28;20219;-69
2023/12/05 00:22:09;;;;;;;22.67;9.53;;;;;;;-1.31;100.00;95372.50;5005395;28;20221;-68
2023/12/05 00:24:36;;;;;;;23.20;10.30;;;;;;;-1.33;100.00;95371.81;5000552;28;20470;-69
2023/12/05 00:27:02;;;;;;;22.53;10.70;;;;;;;-1.28;100.00;95364.50;5000464;28;20236;-69
2023/12/05 00:29:29;;;;;;;21.00;9.53;;;;;;;-1.13;100.00;95369.22;4999977;28;20240;-69
2023/12/05 00:31:55;;;;;;;22.53;9.17;;;;;;;-1.14;100.00;95368.38;4999967;28;20216;-69
2023/12/05 00:34:22;;;;;;;17.87;8.03;;;;;;;-0.98;100.00;95361.00;5000421;28;20226;-69
2023/12/05 00:36:50;;;;;;;21.83;8.73;;;;;;;-0.86;100.00;95364.31;5000319;28;20232;-69
2023/12/05 00:39:16;;;;;;;21.60;9.77;;;;;;;-0.89;100.00;95349.03;4999550;28;20230;-69
2023/12/05 00:41:42;;;;;;;24.13;10.47;;;;;;;-0.88;100.00;95348.94;5000190;28;20204;-69
2023/12/05 00:44:09;;;;;;;22.13;11.03;;;;;;;-0.90;100.00;95350.81;4999549;28;20221;-69
2023/12/05 00:46:35;;;;;;;23.90;10.37;;;;;;;-0.77;100.00;95342.84;4999884;28;20208;-68
2023/12/05 00:49:02;;;;;;;23.43;9.80;;;;;;;-0.61;100.00;95344.00;4999407;28;20587;-69
2023/12/05 00:51:29;;;;;;;20.00;8.60;;;;;;;-0.49;100.00;95329.97;5000129;28;20207;-68
2023/12/05 00:53:56;;;;;;;20.73;10.00;;;;;;;-0.27;100.00;95334.91;5000008;28;20236;-68
2023/12/05 00:56:23;;;;;;;23.53;11.23;;;;;;;-0.28;100.00;95328.09;5000394;28;20220;-69
2023/12/05 00:58:50;;;;;;;19.83;9.13;;;;;;;-0.23;100.00;95321.59;4999029;28;20708;-68
2023/12/05 01:01:19;;;;;;;24.30;10.33;;;;;;;-0.05;100.00;95324.31;5000029;28;20321;-69
2023/12/05 01:03:46;;;;;;;24.73;10.00;;;;;;;-0.12;100.00;95331.00;4999206;28;20213;-69
2023/12/05 01:06:12;;;;;;;22.23;10.93;;;;;;;-0.11;100.00;95345.59;5000195;28;20213;-69
2023/12/05 01:08:39;;;;;;;20.80;8.73;;;;;;;-0.36;100.00;95340.91;4999224;28;20206;-69
2023/12/05 01:11:07;;;;;;;25.83;9.77;;;;;;;0.01;100.00;95345.31;4999343;28;20752;-69
2023/12/05 01:13:33;;;;;;;19.67;8.23;;;;;;;-0.01;100.00;95337.66;4999713;28;20229;-69
2023/12/05 01:16:00;;;;;;;23.37;9.60;;;;;;;-0.08;100.00;95334.94;4999486;28;21142;-69
2023/12/05 01:18:28;;;;;;;20.97;9.33;;;;;;;0.09;100.00;95320.38;4998604;28;20213;-68
2023/12/05 01:20:55;;;;;;;21.03;8.83;;;;;;;0.01;100.00;95311.63;4999123;28;20206;-69
2023/12/05 01:23:21;;;;;;;17.57;8.53;;;;;;;0.08;100.00;95305.78;5003548;28;20209;-69
2023/12/05 01:25:48;;;;;;;30.83;9.70;;;;;;;-0.06;100.00;95320.09;4999031;28;20211;-69
2023/12/05 01:28:16;;;;;;;24.87;10.10;;;;;;;0.10;100.00;95319.44;4998800;28;20213;-69
2023/12/05 01:30:42;;;;;;;19.93;8.73;;;;;;;0.11;100.00;95333.19;4999893;28;20226;-69
2023/12/05 01:33:09;;;;;;;18.83;7.97;;;;;;;0.13;100.00;95339.84;4998893;28;20272;-69
2023/12/05 01:35:35;;;;;;;19.93;10.07;;;;;;;0.25;100.00;95340.53;4999144;28;20774;-68
2023/12/05 01:38:02;;;;;;;16.27;7.80;;;;;;;0.31;100.00;95351.16;4998919;28;20230;-69
2023/12/05 01:40:28;;;;;;;19.03;8.47;;;;;;;0.40;100.00;95337.38;4998737;28;20244;-69
2023/12/05 01:42:55;;;;;;;22.37;8.33;;;;;;;0.36;100.00;95330.84;4998868;28;20219;-69
2023/12/05 01:45:22;;;;;;;18.37;8.27;;;;;;;0.53;100.00;95335.31;5005178;28;20202;-69
2023/12/05 01:47:50;;;;;;;22.53;9.10;;;;;;;0.55;100.00;95336.00;4997836;28;20219;-69
2023/12/05 01:50:19;;;;;;;19.07;8.47;;;;;;;0.46;100.00;95334.25;5004993;28;21189;-69
2023/12/05 01:52:50;;;;;;;16.57;8.40;;;;;;;0.54;100.00;95336.97;4998757;28;20199;-69
2023/12/05 01:55:17;;;;;;;16.77;7.73;;;;;;;0.31;100.00;95333.03;4998238;28;20603;-69
2023/12/05 01:57:44;;;;;;;16.93;7.77;;;;;;;0.36;100.00;95336.03;4997965;28;20739;-69
2023/12/05 02:00:11;;;;;;;15.93;8.17;;;;;;;0.39;100.00;95343.53;4998171;28;20226;-69
2023/12/05 02:02:40;;;;;;;20.40;8.27;;;;;;;0.48;100.00;95345.28;5005801;28;20217;-69
2023/12/05 02:05:08;;;;;;;21.07;8.90;;;;;;;0.49;100.00;95346.94;4998369;28;20580;-69
2023/12/05 02:07:35;;;;;;;19.80;9.13;;;;;;;0.45;100.00;95339.59;4998496;28;20210;-69
2023/12/05 02:10:02;;;;;;;15.53;6.80;;;;;;;0.42;100.00;95335.50;4998062;28;20321;-69
2023/12/05 02:12:28;;;;;;;27.93;9.17;;;;;;;0.31;100.00;95327.84;4998666;28;20242;-69
2023/12/05 02:14:55;;;;;;;15.67;8.77;;;;;;;0.31;100.00;95330.44;4997916;28;20229;-69
2023/12/05 02:17:28;;;;;;;16.13;8.93;;;;;;;0.48;100.00;95329.75;4998142;28;20216;-69
2023/12/05 02:20:06;;;;;;;27.17;9.97;;;;;;;0.39;100.00;95324.59;4998226;28;20249;-69
2023/12/05 02:23:03;;;;;;;23.83;8.37;;;;;;;0.47;100.00;95329.88;4998429;28;20232;-69
2023/12/05 02:25:47;;;;;;;24.43;8.63;;;;;;;0.44;100.00;95330.97;4998038;28;20202;-69
2023/12/05 02:28:16;;;;;;;21.30;9.00;;;;;;;0.34;100.00;95337.13;4999625;28;20217;-69
2023/12/05 02:30:43;;;;;;;19.97;9.03;;;;;;;0.24;100.00;95331.97;4997956;28;20235;-69
2023/12/05 02:33:10;;;;;;;20.43;8.73;;;;;;;0.12;100.00;95327.84;4997738;28;20206;-69
2023/12/05 02:35:37;;;;;;;17.33;8.63;;;;;;;0.13;100.00;95320.94;4998558;28;20240;-69
2023/12/05 02:38:10;;;;;;;20.03;8.40;;;;;;;0.39;100.00;95320.19;4997628;28;20582;-69
2023/12/05 02:40:41;;;;;;;20.47;7.20;;;;;;;0.33;100.00;95319.94;5002608;28;20236;-69
2023/12/05 02:43:12;;;;;;;19.33;7.87;;;;;;;0.41;100.00;95320.91;4997362;28;20210;-69
2023/12/05 02:45:44;;;;;;;18.90;8.50;;;;;;;0.39;100.00;95319.41;4998596;28;20205;-69
2023/12/05 02:48:12;;;;;;;18.77;8.40;;;;;;;0.30;100.00;95326.22;4997270;28;20297;-69
2023/12/05 02:50:38;;;;;;;18.30;8.47;;;;;;;0.27;100.00;95321.31;4998455;28;20226;-69
2023/12/05 02:53:05;;;;;;;18.07;9.27;;;;;;;0.25;100.00;95318.03;5006041;28;20207;-68
2023/12/05 02:55:31;;;;;;;16.70;7.97;;;;;;;0.30;100.00;95315.03;4998017;28;20225;-69
2023/12/05 02:57:58;;;;;;;16.90;7.83;;;;;;;0.34;100.00;95312.03;4997005;28;20213;-69
2023/12/05 03:00:24;;;;;;;21.83;8.10;;;;;;;0.38;100.00;95316.00;4997562;28;20607;-69
2023/12/05 03:02:52;;;;;;;16.53;8.13;;;;;;;0.39;100.00;95306.44;4998064;28;20301;-69
2023/12/05 03:05:19;;;;;;;16.37;9.10;;;;;;;0.30;100.00;95305.50;4997381;28;20672;-69
2023/12/05 03:07:46;;;;;;;18.67;7.83;;;;;;;0.25;100.00;95310.25;4997712;28;20216;-69
2023/12/05 03:10:12;;;;;;;14.90;7.17;;;;;;;0.12;100.00;95296.78;4997900;28;20225;-69
2023/12/05 03:12:39;;;;;;;16.27;6.80;;;;;;;0.06;100.00;95306.88;4997963;28;20578;-69
2023/12/05 03:15:07;;;;;;;18.57;6.23;;;;;;;0.20;100.00;95307.25;4997140;28;20237;-69
2023/12/05 03:17:33;;;;;;;20.03;7.70;;;;;;;0.01;100.00;95307.28;4997957;28;20210;-69
2023/12/05 03:20:01;;;;;;;17.70;7.63;;;;;;;0.19;100.00;95308.25;4997551;28;20237;-69
2023/12/05 03:22:27;;;;;;;19.57;8.00;;;;;;;0.12;100.00;95307.13;4997586;28;20211;-69
2023/12/05 03:24:54;;;;;;;23.03;8.63;;;;;;;-0.03;100.00;95318.03;4997697;28;20687;-69
2023/12/05 03:27:20;;;;;;;20.20;7.50;;;;;;;0.02;100.00;95324.44;5002338;28;20253;-69
2023/12/05 03:29:47;;;;;;;15.90;6.80;;;;;;;-0.14;100.00;95320.78;4997104;28;20237;-69
2023/12/05 03:32:13;;;;;;;17.27;7.80;;;;;;;-0.24;100.00;95321.69;4997226;28;20208;-69
2023/12/05 03:34:40;;;;;;;22.80;8.67;;;;;;;-0.36;100.00;95318.41;4997200;28;20572;-69
2023/12/05 03:37:08;;;;;;;19.20;6.57;;;;;;;-0.37;100.00;95328.91;4997475;28;20214;-69
2023/12/05 03:39:34;;;;;;;15.93;7.30;;;;;;;-0.49;100.00;95311.88;4997619;28;20225;-69
2023/12/05 03:42:01;;;;;;;17.13;7.87;;;;;;;-0.56;100.00;95318.50;4996791;28;20210;-69
2023/12/05 03:44:27;;;;;;;22.60;8.83;;;;;;;-0.55;100.00;95309.81;4996808;28;20205;-69
2023/12/05 03:46:54;;;;;;;16.60;7.03;;;;;;;-0.67;100.00;95313.47;4997463;28;20689;-69
2023/12/05 03:49:20;;;;;;;18.17;7.43;;;;;;;-0.69;100.00;95315.34;4997216;28;20235;-69
2023/12/05 03:51:47;;;;;;;21.20;8.43;;;;;;;-0.78;100.00;95308.38;4997800;28;20309;-69
2023/12/05 03:54:15;;;;;;;25.87;8.27;;;;;;;-0.64;100.00;95314.97;4996138;28;20736;-69
2023/12/05 03:56:42;;;;;;;16.00;7.70;;;;;;;-0.84;100.00;95319.28;4996144;28;20217;-69
2023/12/05 03:59:08;;;;;;;17.33;9.17;;;;;;;-1.02;100.00;95320.84;4996334;28;20281;-69
2023/12/05 04:01:35;;;;;;;18.30;9.00;;;;;;;-1.07;100.00;95322.16;5004432;28;20276;-69
2023/12/05 04:04:01;;;;;;;19.03;7.80;;;;;;;-1.09;100.00;95324.88;5002715;28;20239;-69
2023/12/05 04:06:28;;;;;;;19.60;8.40;;;;;;;-1.14;100.00;95331.41;4996756;28;20212;-69
2023/12/05 04:08:54;;;;;;;17.50;8.40;;;;;;;-1.32;100.00;95322.59;4996031;28;20600;-69
2023/12/05 04:11:30;;;;;;;14.40;7.00;;;;;;;-1.18;100.00;95312.75;4996238;28;20222;-69
2023/12/05 04:13:57;;;;;;;18.70;8.00;;;;;;;-1.29;100.00;95322.34;4996638;28;20209;-69
2023/12/05 04:16:24;;;;;;;17.10;7.77;;;;;;;-1.33;100.00;95320.97;5010968;28;20567;-69
2023/12/05 04:18:50;;;;;;;14.50;6.40;;;;;;;-1.42;100.00;95328.66;4998023;28;20228;-69
2023/12/05 04:21:17;;;;;;;18.50;7.70;;;;;;;-1.35;100.00;95334.94;5000383;28;20237;-69
2023/12/05 04:23:44;;;;;;;16.60;6.77;;;;;;;-1.48;100.00;95331.75;5005905;28;20208;-69
2023/12/05 04:26:14;;;;;;;18.63;7.93;;;;;;;-1.33;100.00;95326.13;5000184;28;20213;-69
2023/12/05 04:28:42;;;;;;;18.87;8.13;;;;;;;-1.41;100.00;95325.13;4999977;28;20205;-69
2023/12/05 04:31:09;;;;;;;22.90;9.07;;;;;;;-1.49;100.00;95323.19;5000733;28;20212;-69
2023/12/05 04:33:35;;;;;;;24.97;9.13;;;;;;;-1.58;100.00;95328.28;4999987;28;20219;-69
2023/12/05 04:36:02;;;;;;;18.47;8.43;;;;;;;-1.60;100.00;95331.00;5000030;28;20234;-69
2023/12/05 04:38:28;;;;;;;24.27;7.77;;;;;;;-1.58;100.00;95316.22;5002797;28;20213;-69
2023/12/05 04:40:55;;;;;;;21.83;9.07;;;;;;;-1.56;100.00;95324.63;5000247;28;20304;-69
2023/12/05 04:43:22;;;;;;;19.10;8.63;;;;;;;-1.74;100.00;95315.81;4999846;28;21097;-69
2023/12/05 04:45:49;;;;;;;29.50;8.60;;;;;;;-1.55;100.00;95313.38;5000807;28;20210;-69
2023/12/05 04:48:17;;;;;;;21.63;9.27;;;;;;;-1.35;100.00;95325.47;4999390;28;20217;-69
2023/12/05 04:50:44;;;;;;;21.23;9.70;;;;;;;-1.37;100.00;95334.28;5000030;28;21164;-68
2023/12/05 04:53:10;;;;;;;32.50;11.83;;;;;;;-1.41;100.00;95320.78;5000199;28;20217;-69
2023/12/05 04:55:37;;;;;;;29.30;11.63;;;;;;;-1.51;100.00;95321.69;5000316;28;20729;-69
2023/12/05 04:58:03;;;;;;;23.73;9.23;;;;;;;-1.28;100.00;95323.19;4998979;28;20209;-69
2023/12/05 05:00:30;;;;;;;29.97;9.87;;;;;;;-1.37;100.00;95332.50;4999466;28;21105;-69
2023/12/05 05:02:58;;;;;;;24.93;10.73;;;;;;;-1.13;100.00;95335.63;5000947;28;20201;-69
2023/12/05 05:05:24;;;;;;;22.97;9.73;;;;;;;-1.14;100.00;95331.41;4999639;28;20212;-69
2023/12/05 05:07:51;;;;;;;25.93;9.67;;;;;;;-1.11;100.00;95334.56;4999166;28;20682;-69
2023/12/05 05:10:17;;;;;;;22.00;9.40;;;;;;;-1.12;100.00;95338.06;4999949;28;20237;-69
2023/12/05 05:12:44;;;;;;;28.87;10.10;;;;;;;-1.13;100.00;95323.50;5000732;28;20585;-69
2023/12/05 05:15:11;;;;;;;16.93;8.77;;;;;;;-1.11;100.00;95324.22;5005201;28;20239;-68
2023/12/05 05:17:37;;;;;;;26.40;9.30;;;;;;;-1.34;100.00;95314.16;4999451;28;20210;-69
2023/12/05 05:20:06;;;;;;;19.43;8.67;;;;;;;-1.16;100.00;95328.94;4999774;28;20233;-69
2023/12/05 05:22:34;;;;;;;24.33;9.17;;;;;;;-1.28;100.00;95331.72;4998831;28;20206;-69
2023/12/05 05:25:00;;;;;;;17.00;8.37;;;;;;;-1.60;100.00;95332.78;4999594;28;20213;-69
2023/12/05 05:27:27;;;;;;;19.93;9.40;;;;;;;-1.43;100.00;95321.88;5001956;28;20669;-69
2023/12/05 05:29:53;;;;;;;32.00;11.50;;;;;;;-1.43;100.00;95317.50;4998545;28;20228;-69
2023/12/05 05:32:20;;;;;;;20.83;9.73;;;;;;;-1.78;100.00;95322.19;4999739;28;20943;-69
2023/12/05 05:34:46;;;;;;;21.93;8.73;;;;;;;-1.68;100.00;95336.00;4999456;28;20237;-69
2023/12/05 05:37:14;;;;;;;21.47;8.43;;;;;;;-1.46;100.00;95330.69;4998381;28;20203;-69
2023/12/05 05:39:40;;;;;;;23.27;9.63;;;;;;;-1.52;100.00;95320.84;4998950;28;20223;-69
2023/12/05 05:42:07;;;;;;;19.03;9.17;;;;;;;-1.37;100.00;95329.13;4999106;28;20208;-69
2023/12/05 05:44:33;;;;;;;22.73;8.27;;;;;;;-1.43;100.00;95325.25;4998458;28;20219;-69
2023/12/05 05:47:00;;;;;;;21.97;9.37;;;;;;;-1.31;100.00;95339.75;5002240;28;20215;-69
2023/12/05 05:49:27;;;;;;;21.10;7.50;;;;;;;-1.25;100.00;95326.28;5002522;28;20233;-71
2023/12/05 05:51:53;;;;;;;18.87;9.03;;;;;;;-1.43;100.00;95330.41;4998962;28;20285;-69
2023/12/05 05:54:21;;;;;;;16.63;7.50;;;;;;;-1.10;100.00;95327.59;4997907;28;20210;-69
2023/12/05 05:56:48;;;;;;;18.40;7.97;;;;;;;-1.14;100.00;95342.53;4999641;28;20214;-69
2023/12/05 05:59:14;;;;;;;12.90;6.80;;;;;;;-1.21;100.00;95358.69;4997637;28;20231;-69
2023/12/05 06:01:41;;;;;;;16.20;7.67;;;;;;;-1.07;100.00;95359.19;4998698;28;20216;-68
2023/12/05 06:04:07;;;;;;;22.97;9.00;;;;;;;-1.33;100.00;95356.31;4998554;28;20205;-68
2023/12/05 06:06:34;;;;;;;15.80;8.07;;;;;;;-1.39;100.00;95356.81;4998695;28;20235;-69
2023/12/05 06:09:00;;;;;;;24.60;10.27;;;;;;;-1.20;100.00;95352.56;4997578;28;20228;-69
2023/12/05 06:11:28;;;;;;;19.00;8.87;;;;;;;-0.98;100.00;95357.56;4997077;28;20665;-69
2023/12/05 06:13:55;;;;;;;19.30;7.67;;;;;;;-1.10;100.00;95366.38;4998760;28;20216;-68
2023/12/05 06:16:21;;;;;;;15.87;7.83;;;;;;;-1.13;100.00;95367.44;4997905;28;20229;-69
2023/12/05 06:18:48;;;;;;;17.20;8.00;;;;;;;-1.26;100.00;95362.59;4997488;28;20217;-69
2023/12/05 06:21:15;;;;;;;26.13;9.40;;;;;;;-1.50;100.00;95359.47;5003497;28;20696;-68
2023/12/05 06:23:41;;;;;;;18.10;8.47;;;;;;;-1.40;100.00;95360.34;5006361;28;20210;-69
2023/12/05 06:26:08;;;;;;;24.67;9.90;;;;;;;-1.31;100.00;95355.25;5003989;28;20216;-68
2023/12/05 06:28:36;;;;;;;23.90;9.37;;;;;;;-1.17;100.00;95357.50;5010345;28;20209;-69
2023/12/05 06:31:03;;;;;;;22.93;8.17;;;;;;;-1.24;100.00;95360.72;5011025;28;20213;-69
2023/12/05 06:33:29;;;;;;;18.40;7.73;;;;;;;-1.22;100.00;95368.22;5007028;28;20218;-69
2023/12/05 06:35:56;;;;;;;27.07;9.53;;;;;;;-1.23;100.00;95374.31;5008382;28;20229;-69
2023/12/05 06:38:22;;;;;;;23.73;9.10;;;;;;;-1.33;100.00;95377.00;5010114;28;20210;-69
2023/12/05 06:40:49;;;;;;;17.50;7.57;;;;;;;-1.38;100.00;95382.53;5012223;28;20239;-71
2023/12/05 06:43:15;;;;;;;20.50;6.83;;;;;;;-1.45;100.00;95373.66;5006073;28;20213;-69
2023/12/05 06:45:43;;;;;;;23.77;7.73;;;;;;;-1.35;100.00;95384.03;5003756;28;20211;-69
2023/12/05 06:48:10;;;;;;;17.17;7.33;;;;;;;-1.53;100.00;95395.88;4997505;28;20217;-69
2023/12/05 06:50:36;;;;;;;17.50;7.33;;;;;;;-1.55;100.00;95380.50;4997548;28;20230;-69
2023/12/05 06:53:03;;;;;;;22.63;9.00;;;;;;;-1.75;100.00;95385.66;4998318;28;20260;-68
2023/12/05 06:55:29;;;;;;;20.80;8.57;;;;;;;-1.72;100.00;95390.56;5003796;28;20255;-68
2023/12/05 06:57:56;;;;;;;17.90;8.63;;;;;;;-1.70;100.00;95389.50;4998491;28;20212;-69
2023/12/05 07:00:24;;;;;;;23.77;10.23;;;;;;;-1.62;100.00;95387.09;4997711;28;20217;-69
2023/12/05 07:02:51;;;;;;;25.57;9.93;;;;;;;-1.57;100.00;95379.81;4997645;28;20214;-68
2023/12/05 07:05:18;;;;;;;27.50;10.60;;;;;;;-1.64;100.00;95383.03;5002724;28;20206;-69
2023/12/05 07:07:44;;;;;;;22.23;8.93;;;;;;;-1.62;100.00;95387.09;5008494;28;20205;-69
2023/12/05 07:10:11;;;;;;;35.03;9.57;;;;;;;-1.55;100.00;95377.13;4998117;28;20224;-69
2023/12/05 07:12:37;;;;;;;35.77;10.07;;;;;;;-1.60;100.00;95371.50;4997219;28;20213;-68
2023/12/05 07:15:05;;;;;;;29.47;11.10;;;;;;;-1.60;100.00;95376.69;4996970;28;20212;-68
2023/12/05 07:17:31;;;;;;;30.33;11.23;;;;;;;-1.62;100.00;95379.38;5002915;28;20213;-68
2023/12/05 07:19:59;;;;;;;29.10;9.30;;;;;;;-1.65;100.00;95378.81;5003696;28;20804;-68
2023/12/05 07:22:25;;;;;;;29.50;10.80;;;;;;;-1.76;100.00;95376.28;5005098;28;20209;-69
2023/12/05 07:24:52;;;;;;;22.43;8.67;;;;;;;-1.77;100.00;95382.38;5004550;28;20204;-69
2023/12/05 07:27:19;;;;;;;27.90;9.10;;;;;;;-1.65;100.00;95384.78;5003822;28;20205;-69
2023/12/05 07:29:45;;;;;;;26.60;8.90;;;;;;;-1.58;100.00;95379.94;5008296;28;20715;-69
2023/12/05 07:32:12;;;;;;;24.33;9.07;;;;;;;-1.66;100.00;95393.47;5002482;28;20691;-69
2023/12/05 07:34:39;;;;;;;18.90;9.13;;;;;;;-1.57;100.00;95405.63;5002427;28;20275;-69
2023/12/05 07:37:06;;;;;;;20.07;9.40;;;;;;;-1.49;100.00;95416.19;5001098;28;20816;-69
2023/12/05 07:39:33;;;;;;;25.83;9.47;;;;;;;-1.51;100.00;95419.84;5003433;28;20230;-70
2023/12/05 07:42:00;;;;;;;19.13;7.73;;;;;;;-1.46;100.00;95415.94;5001747;28;20226;-69
2023/12/05 07:44:27;;;;;;;19.87;8.20;;;;;;;-1.37;100.00;95433.25;5003436;28;20206;-69
2023/12/05 07:46:54;;;;;;;31.73;11.07;;;;;;;-1.19;100.00;95431.75;5001815;28;20200;-70
2023/12/05 07:49:21;;;;;;;19.97;9.47;;;;;;;-1.10;100.00;95431.78;5007623;28;20232;-70
2023/12/05 07:51:48;;;;;;;29.70;10.33;;;;;;;-0.90;100.00;95436.13;5002537;28;20264;-70
2023/12/05 07:54:16;;;;;;;34.53;10.13;;;;;;;-0.70;100.00;95434.47;5001490;28;20227;-70
2023/12/05 07:56:43;;;;;;;23.73;8.23;;;;;;;-0.81;100.00;95435.38;5000419;28;20607;-69
2023/12/05 07:59:10;;;;;;;19.07;8.33;;;;;;;-0.93;100.00;95439.00;5001162;28;20252;-69
2023/12/05 08:01:37;;;;;;;26.80;9.27;;;;;;;-0.95;100.00;95435.69;5007466;28;20194;-69
2023/12/05 08:04:03;;;;;;;15.63;6.57;;;;;;;-0.53;100.00;95422.56;5011519;28;20438;-69
2023/12/05 08:06:30;;;;;;;16.73;6.60;;;;;;;1.12;100.00;95419.69;5011159;28;20259;-70
2023/12/05 08:08:57;;;;;;;36.80;12.90;;;;;;;1.31;100.00;95420.47;5020229;28;20441;-70
2023/12/05 08:11:24;;;;;;;28.10;9.47;;;;;;;1.30;100.00;95430.97;5016233;28;20467;-69
2023/12/05 08:13:51;;;;;;;23.40;9.60;;;;;;;1.00;100.00;95418.19;5016762;28;20198;-70
2023/12/05 08:16:17;;;;;;;20.83;8.10;;;;;;;0.90;100.00;95416.59;5012629;28;20237;-70
2023/12/05 08:18:44;;;;;;;20.40;9.33;;;;;;;0.84;100.00;95417.13;5014872;28;20279;-70
2023/12/05 08:21:11;;;;;;;18.33;6.27;;;;;;;0.82;100.00;95416.47;5015998;28;20210;-70
2023/12/05 08:23:37;;;;;;;14.70;6.20;;;;;;;0.85;100.00;95405.81;5014887;28;20295;-70
2023/12/05 08:26:04;;;;;;;10.93;5.20;;;;;;;0.95;100.00;95407.41;5012335;28;20215;-70
2023/12/05 08:28:32;;;;;;;10.60;5.90;;;;;;;1.04;100.00;95405.78;5013868;28;20578;-69
2023/12/05 08:30:59;;;;;;;10.63;5.23;;;;;;;0.99;100.00;95413.16;5005488;28;20205;-70
2023/12/05 08:33:25;;;;;;;14.73;6.20;;;;;;;1.12;100.00;95414.50;5014426;28;20582;-69
2023/12/05 08:35:52;;;;;;;14.90;5.73;;;;;;;1.28;100.00;95420.72;5020111;28;20233;-69
2023/12/05 08:38:18;;;;;;;13.40;5.80;;;;;;;1.19;100.00;95415.56;5018606;28;20253;-70
2023/12/05 08:40:45;;;;;;;13.33;5.03;;;;;;;1.23;100.00;95412.56;5006628;28;20313;-69
2023/12/05 08:43:11;;;;;;;11.77;5.80;;;;;;;1.27;100.00;95413.91;5006063;28;20209;-70
2023/12/05 08:45:39;;;;;;;9.53;4.63;;;;;;;1.61;100.00;95404.63;4999176;28;20194;-69
2023/12/05 08:48:06;;;;;;;11.27;4.43;;;;;;;1.43;100.00;95419.31;4999982;28;20217;-69
2023/12/05 08:50:33;;;;;;;18.37;5.20;;;;;;;1.67;100.00;95411.00;5007971;28;20245;-70
2023/12/05 08:52:59;;;;;;;9.60;4.70;;;;;;;1.62;100.00;95408.84;5004181;28;20210;-69
2023/12/05 08:55:26;;;;;;;10.33;5.13;;;;;;;1.72;100.00;95419.19;5009180;28;20225;-70
2023/12/05 08:57:52;;;;;;;13.90;5.93;;;;;;;1.70;100.00;95419.34;5006859;28;20206;-70
2023/12/05 09:00:19;;;;;;;9.20;4.60;;;;;;;1.93;100.00;95423.19;5006700;28;20312;-70
2023/12/05 09:02:47;;;;;;;9.87;4.30;;;;;;;2.29;100.00;95419.69;5005615;28;20937;-69
2023/12/05 09:05:14;;;;;;;11.37;4.73;;;;;;;2.12;100.00;95429.09;5007663;28;20206;-69
2023/12/05 09:07:40;;;;;;;11.00;4.80;;;;;;;2.05;100.00;95428.06;5006867;28;20212;-70
2023/12/05 09:10:07;;;;;;;11.20;4.17;;;;;;;2.20;100.00;95442.19;5001073;28;20234;-70
2023/12/05 09:12:34;;;;;;;11.57;4.43;;;;;;;2.21;100.00;95433.41;5006343;28;20229;-69
2023/12/05 09:15:01;;;;;;;12.70;5.00;;;;;;;2.36;100.00;95436.34;4998836;28;20210;-69
2023/12/05 09:17:28;;;;;;;13.67;4.60;;;;;;;2.48;100.00;95431.59;4997782;28;20716;-70
2023/12/05 09:19:55;;;;;;;13.73;4.70;;;;;;;2.68;100.00;95425.25;4999533;28;20272;-70
2023/12/05 09:22:22;;;;;;;15.10;7.03;;;;;;;2.58;100.00;95428.91;5007096;28;20297;-70
2023/12/05 09:24:49;;;;;;;13.60;4.90;;;;;;;2.70;100.00;95425.94;5012533;28;20198;-70
2023/12/05 09:27:15;;;;;;;10.17;4.57;;;;;;;2.79;100.00;95419.84;4998748;28;20685;-70
2023/12/05 09:29:41;;;;;;;12.77;4.97;;;;;;;3.06;100.00;95428.34;5006836;28;20227;-70
2023/12/05 09:32:08;;;;;;;12.03;6.00;;;;;;;3.13;100.00;95423.34;5022512;28;20210;-70
2023/12/05 09:34:34;;;;;;;11.07;4.87;;;;;;;3.19;100.00;95415.75;5021044;28;20203;-69
2023/12/05 09:37:02;;;;;;;16.80;5.67;;;;;;;3.99;100.00;95424.81;5005321;28;20233;-70
2023/12/05 09:39:31;;;;;;;16.83;7.07;;;;;;;4.53;100.00;95422.56;5012080;28;20713;-70
2023/12/05 09:42:02;;;;;;;13.27;4.57;;;;;;;4.46;100.00;95418.94;5021957;28;20207;-70
2023/12/05 09:44:32;;;;;;;9.07;3.57;;;;;;;4.17;100.00;95435.97;5023340;28;21154;-70
2023/12/05 09:47:01;;;;;;;12.87;4.43;;;;;;;4.28;100.00;95427.88;5021025;28;20204;-70
2023/12/05 09:49:28;;;;;;;17.30;5.33;;;;;;;4.15;100.00;95435.31;5019540;28;20315;-69
2023/12/05 09:51:55;;;;;;;11.70;5.37;;;;;;;3.96;100.00;95443.38;5025662;28;20245;-70
2023/12/05 09:54:25;;;;;;;9.40;4.53;;;;;;;4.04;100.00;95451.22;5017692;28;20203;-70
2023/12/05 09:56:55;;;;;;;10.87;4.73;;;;;;;4.03;100.00;95441.78;5023776;28;20213;-70
2023/12/05 09:59:22;;;;;;;7.87;4.40;;;;;;;4.17;100.00;95438.56;5021215;28;20218;-70
2023/12/05 10:01:49;;;;;;;12.03;5.20;;;;;;;4.34;100.00;95443.69;5026223;28;20201;-70
2023/12/05 10:04:18;;;;;;;10.83;4.67;;;;;;;4.36;100.00;95443.53;5020062;28;20211;-70
2023/12/05 10:06:46;;;;;;;10.47;4.43;;;;;;;4.46;100.00;95446.81;5018685;28;20203;-70
2023/12/05 10:09:16;;;;;;;9.23;3.33;;;;;;;4.34;100.00;95446.28;5014587;28;20236;-70
2023/12/05 10:11:45;;;;;;;19.10;6.53;;;;;;;4.40;100.00;95439.63;5013282;28;21049;-70
2023/12/05 10:14:12;;;;;;;15.90;4.63;;;;;;;4.45;100.00;95442.56;4997433;28;20208;-70
2023/12/05 10:16:39;;;;;;;10.90;4.93;;;;;;;4.33;100.00;95449.88;4998658;28;20240;-70
2023/12/05 10:19:10;;;;;;;11.33;4.60;;;;;;;4.57;100.00;95444.72;5005675;28;20394;-70
2023/12/05 10:21:37;;;;;;;12.40;4.07;;;;;;;4.27;100.00;95450.50;5005373;28;20226;-69
2023/12/05 10:24:04;;;;;;;12.00;5.03;;;;;;;4.34;100.00;95437.63;5005004;28;20212;-70
2023/12/05 10:26:31;;;;;;;13.30;5.10;;;;;;;4.57;100.00;95430.84;5007701;28;20217;-69
2023/12/05 10:28:59;;;;;;;16.13;5.13;;;;;;;4.81;100.00;95418.66;5003912;28;20285;-72
2023/12/05 10:31:25;;;;;;;8.83;4.70;;;;;;;4.54;100.00;95412.91;5004114;28;20429;-70
2023/12/05 10:34:04;;;;;;;11.10;5.10;;;;;;;4.92;100.00;95420.94;5003016;28;20224;-71
2023/12/05 10:36:31;;;;;;;11.30;4.27;;;;;;;4.77;100.00;95412.13;5003474;28;20229;-69
2023/12/05 10:38:58;;;;;;;19.20;4.40;;;;;;;4.65;100.00;95413.44;5002802;28;20222;-71
2023/12/05 10:41:28;;;;;;;7.13;3.83;;;;;;;4.90;100.00;95407.22;5003073;28;20205;-69
2023/12/05 10:43:55;;;;;;;8.93;3.50;;;;;;;5.17;100.00;95409.53;5007717;28;20213;-69
2023/12/05 10:46:24;;;;;;;5.97;2.70;;;;;;;5.14;100.00;95410.69;5015082;28;20205;-71
2023/12/05 10:48:51;;;;;;;8.07;3.60;;;;;;;5.05;100.00;95406.44;5004785;28;20205;-69
2023/12/05 10:51:18;;;;;;;9.67;3.10;;;;;;;5.01;100.00;95405.13;5004483;28;20201;-70
2023/12/05 10:53:45;;;;;;;10.10;2.87;;;;;;;5.29;100.00;95403.00;4999837;28;20590;-70
2023/12/05 10:56:12;;;;;;;4.87;2.83;;;;;;;5.07;100.00;95403.66;5011316;28;20205;-70
2023/12/05 10:58:39;;;;;;;5.43;3.27;;;;;;;5.44;100.00;95397.72;5009766;28;21247;-71
2023/12/05 11:01:08;;;;;;;5.80;2.53;;;;;;;5.27;100.00;95400.56;4997011;28;20769;-70
2023/12/05 11:03:37;;;;;;;8.20;3.20;;;;;;;5.50;100.00;95401.50;5003350;28;20209;-69
2023/12/05 11:06:03;;;;;;;5.37;2.00;;;;;;;5.56;100.00;95400.81;4999136;28;20269;-71
2023/12/05 11:08:30;;;;;;;5.57;2.70;;;;;;;5.77;100.00;95399.31;4996847;28;20209;-70
2023/12/05 11:10:58;;;;;;;5.30;2.37;;;;;;;5.85;100.00;95395.88;4998390;28;20226;-70
2023/12/05 11:13:25;;;;;;;5.03;2.43;;;;;;;5.95;100.00;95404.34;4997520;28;20195;-69
2023/12/05 11:15:55;;;;;;;6.80;2.30;;;;;;;6.86;100.00;95389.41;5001154;28;20206;-70
2023/12/05 11:18:33;;;;;;;4.00;2.37;;;;;;;6.74;100.00;95388.19;4996584;28;21213;-70
2023/12/05 11:21:15;;;;;;;3.37;2.10;;;;;;;6.47;100.00;95388.69;5001041;28;20209;-70